Time;durP1;ratioP1;P1;durP2;ratioP2;P2;SDS_P1;SDS_P2;PMS_P1;PMS_P2;Temp;Humidity;BMP_temperature;BMP_pressure;BME280_temperature;BME280_humidity;BME280_pressure;Samples;Min_cycle;Max_cycle;Signal;HPM_P1;HPM_P2
2021/11/25 06:18:20;;;;;;;78.72;23.38;;;;;;;0.98;77.19;97515.25;5122673;23;20053;-49
2021/11/25 06:20:46;;;;;;;74.43;24.30;;;;;;;1.04;77.15;97514.19;4854705;29;20382;-52
2021/11/25 06:23:11;;;;;;;74.38;21.50;;;;;;;1.29;76.85;97511.41;4854671;29;20034;-49
2021/11/25 06:25:37;;;;;;;83.10;25.15;;;;;;;1.36;76.06;97512.81;4855914;29;20026;-49
2021/11/25 06:28:02;;;;;;;77.20;23.73;;;;;;;1.33;76.50;97506.03;4857207;29;20052;-50
2021/11/25 06:30:27;;;;;;;75.13;22.30;;;;;;;1.60;75.48;97511.75;4854413;29;20029;-44
2021/11/25 06:32:53;;;;;;;75.65;23.95;;;;;;;1.40;75.69;97514.38;4852244;29;20047;-50
2021/11/25 06:35:19;;;;;;;77.10;24.10;;;;;;;1.05;77.54;97527.00;4856714;29;20506;-49
2021/11/25 06:37:46;;;;;;;83.32;24.75;;;;;;;1.33;76.23;97528.44;4859868;29;20048;-50
2021/11/25 06:40:13;;;;;;;85.07;23.92;;;;;;;1.21;76.82;97529.81;4859048;29;20037;-49
2021/11/25 06:42:38;;;;;;;85.40;25.10;;;;;;;1.03;76.66;97539.13;4858925;29;20041;-49
2021/11/25 06:45:04;;;;;;;77.03;23.52;;;;;;;1.24;76.79;97531.41;4855007;29;20033;-49
2021/11/25 06:47:30;;;;;;;71.70;24.75;;;;;;;1.07;76.91;97519.22;4850259;29;20041;-51
2021/11/25 06:49:55;;;;;;;73.22;23.75;;;;;;;1.02;77.27;97532.31;4878830;29;20088;-50
2021/11/25 06:52:20;;;;;;;74.15;23.20;;;;;;;1.25;77.60;97546.03;4878184;29;20029;-51
2021/11/25 06:54:46;;;;;;;77.43;26.58;;;;;;;1.34;76.59;97548.22;4869708;29;20406;-50
2021/11/25 06:57:11;;;;;;;76.00;23.70;;;;;;;1.15;76.25;97543.81;4868912;29;20193;-51
2021/11/25 06:59:39;;;;;;;74.25;25.23;;;;;;;1.30;76.53;97544.06;4841586;29;20045;-50
2021/11/25 07:02:04;;;;;;;87.70;27.90;;;;;;;1.27;76.32;97539.03;4859093;29;20624;-50
2021/11/25 07:04:30;;;;;;;96.30;27.35;;;;;;;1.36;76.42;97530.91;4864648;29;20037;-47
2021/11/25 07:06:55;;;;;;;86.22;25.05;;;;;;;0.92;77.40;97524.09;4873028;29;20508;-49
2021/11/25 07:09:20;;;;;;;79.78;24.77;;;;;;;0.84;77.88;97540.81;4866173;29;20046;-53
2021/11/25 07:11:46;;;;;;;81.78;29.33;;;;;;;1.18;76.93;97543.69;4857783;29;20025;-52
2021/11/25 07:14:11;;;;;;;179.02;49.60;;;;;;;1.07;77.26;97547.63;4878186;29;20477;-50
2021/11/25 07:16:37;;;;;;;111.60;33.00;;;;;;;1.29;76.69;97537.25;4876733;29;20037;-48
2021/11/25 07:19:03;;;;;;;156.70;42.67;;;;;;;1.21;76.99;97534.16;4854232;29;20120;-48
2021/11/25 07:21:28;;;;;;;150.23;42.85;;;;;;;1.06;76.86;97531.28;4846328;29;21204;-49
2021/11/25 07:23:54;;;;;;;76.25;24.15;;;;;;;1.36;75.82;97533.50;4875774;29;20039;-49
2021/11/25 07:26:19;;;;;;;82.13;24.75;;;;;;;1.21;76.89;97536.72;4861804;29;20490;-47
2021/11/25 07:28:44;;;;;;;85.10;25.48;;;;;;;1.29;77.06;97534.66;4870633;29;20037;-49
2021/11/25 07:31:10;;;;;;;71.82;22.88;;;;;;;1.19;77.14;97542.78;4868178;29;20033;-50
2021/11/25 07:33:35;;;;;;;78.72;26.13;;;;;;;1.22;77.22;97531.50;4877824;29;20049;-48
2021/11/25 07:36:00;;;;;;;74.13;23.80;;;;;;;1.41;77.16;97534.13;4865464;29;20026;-51
2021/11/25 07:38:26;;;;;;;79.93;24.30;;;;;;;1.24;77.14;97534.00;4859504;29;20450;-49
2021/11/25 07:40:52;;;;;;;80.00;23.83;;;;;;;1.18;76.90;97540.28;4859490;29;20030;-50
2021/11/25 07:43:18;;;;;;;70.20;23.30;;;;;;;0.99;77.18;97532.44;4859326;29;20573;-52
2021/11/25 07:45:43;;;;;;;70.57;22.90;;;;;;;1.16;77.03;97532.56;4858031;29;20125;-50
2021/11/25 07:48:09;;;;;;;67.43;21.05;;;;;;;1.21;76.86;97536.72;4859386;29;20030;-50
2021/11/25 07:50:36;;;;;;;69.95;21.23;;;;;;;1.29;76.38;97543.25;4850334;29;20378;-51
2021/11/25 07:53:02;;;;;;;75.15;23.05;;;;;;;1.05;77.29;97554.59;4841109;29;20029;-53
2021/11/25 07:55:27;;;;;;;69.70;20.85;;;;;;;1.40;75.73;97542.78;4840821;29;20048;-49
2021/11/25 07:57:53;;;;;;;69.32;22.70;;;;;;;1.36;76.09;97538.66;4855140;29;20049;-51
2021/11/25 08:00:21;;;;;;;70.35;21.13;;;;;;;1.56;75.12;97528.31;4841876;29;20462;-47
2021/11/25 08:02:47;;;;;;;75.07;21.85;;;;;;;1.26;76.14;97527.03;4840309;29;20058;-51
2021/11/25 08:05:12;;;;;;;77.45;23.63;;;;;;;1.26;76.47;97527.03;4854862;29;20029;-49
2021/11/25 08:07:39;;;;;;;77.25;24.55;;;;;;;1.33;76.08;97518.13;4840984;29;20030;-49
2021/11/25 08:10:05;;;;;;;75.00;22.67;;;;;;;1.22;76.36;97525.47;4840944;29;20379;-49
2021/11/25 08:12:31;;;;;;;72.20;21.63;;;;;;;1.32;76.24;97519.03;4841815;29;20044;-52
2021/11/25 08:14:56;;;;;;;73.28;23.45;;;;;;;1.15;76.73;97523.16;4840607;29;20475;-51
2021/11/25 08:17:21;;;;;;;77.78;23.67;;;;;;;1.22;77.10;97515.16;4840649;29;20030;-50
2021/11/25 08:19:47;;;;;;;82.65;23.90;;;;;;;1.18;76.60;97522.19;4841005;29;20044;-49
2021/11/25 08:22:14;;;;;;;79.03;24.02;;;;;;;1.14;76.93;97523.22;4841896;29;20442;-50
2021/11/25 08:24:40;;;;;;;74.22;23.13;;;;;;;1.08;77.28;97513.97;4849397;29;20405;-50
2021/11/25 08:27:05;;;;;;;79.97;23.73;;;;;;;0.99;77.82;97519.50;4859167;29;20508;-53
2021/11/25 08:29:31;;;;;;;86.20;25.25;;;;;;;1.13;76.98;97519.78;4861075;29;20033;-50
2021/11/25 08:31:56;;;;;;;181.55;49.33;;;;;;;1.11;76.86;97523.34;4862610;29;20397;-52
2021/11/25 08:34:23;;;;;;;78.00;23.83;;;;;;;1.12;77.46;97523.28;4860859;29;20081;-49
2021/11/25 08:36:48;;;;;;;82.00;23.42;;;;;;;1.10;77.44;97507.03;4862606;29;20112;-49
2021/11/25 08:39:14;;;;;;;84.00;28.88;;;;;;;1.20;77.25;97522.94;4862446;29;20032;-51
2021/11/25 08:41:39;;;;;;;77.60;24.10;;;;;;;1.52;75.80;97518.19;4862383;29;20093;-51
2021/11/25 08:44:04;;;;;;;78.05;24.55;;;;;;;1.52;75.18;97528.53;4861552;29;20059;-53
2021/11/25 08:46:30;;;;;;;80.03;25.05;;;;;;;1.61;75.15;97534.09;4861535;29;20064;-52
2021/11/25 08:48:56;;;;;;;83.18;25.95;;;;;;;1.35;75.67;97537.00;4862339;29;20082;-51
2021/11/25 08:51:22;;;;;;;72.50;23.13;;;;;;;1.51;75.47;97542.31;4862040;29;20021;-50
2021/11/25 08:53:47;;;;;;;79.43;22.95;;;;;;;1.75;73.74;97535.25;4860820;29;20040;-51
2021/11/25 08:56:12;;;;;;;76.88;21.83;;;;;;;1.55;74.83;97525.78;4856588;29;20515;-50
2021/11/25 08:58:38;;;;;;;81.63;25.30;;;;;;;1.79;74.10;97531.63;4861945;29;20088;-51
2021/11/25 09:01:04;;;;;;;85.78;25.02;;;;;;;1.59;74.69;97532.53;4862032;29;20082;-49
2021/11/25 09:03:30;;;;;;;91.85;26.77;;;;;;;1.43;75.79;97545.25;4861956;29;20113;-48
2021/11/25 09:05:57;;;;;;;91.03;28.08;;;;;;;1.38;75.65;97542.03;4862170;29;20033;-50
2021/11/25 09:08:22;;;;;;;87.95;28.25;;;;;;;1.26;76.18;97547.69;4856267;29;20078;-52
2021/11/25 09:10:48;;;;;;;83.40;28.45;;;;;;;1.20;76.70;97548.78;4843608;29;20018;-53
2021/11/25 09:13:13;;;;;;;90.40;25.83;;;;;;;1.22;76.46;97548.72;4843273;29;20040;-48
2021/11/25 09:15:39;;;;;;;71.82;22.00;;;;;;;1.49;75.53;97537.25;4843545;29;20427;-48
2021/11/25 09:18:07;;;;;;;79.05;26.10;;;;;;;1.49;75.88;97541.56;4843788;29;20113;-49
2021/11/25 09:20:34;;;;;;;74.28;23.60;;;;;;;1.74;74.54;97533.59;4843438;29;20050;-50
2021/11/25 09:23:04;;;;;;;84.15;23.95;;;;;;;1.87;74.25;97538.16;4843335;29;20490;-53
2021/11/25 09:25:29;;;;;;;73.85;23.65;;;;;;;1.91;73.77;97525.94;4843297;29;20041;-49
2021/11/25 09:27:55;;;;;;;81.45;22.58;;;;;;;1.68;74.77;97519.19;4844205;29;20030;-49
2021/11/25 09:30:20;;;;;;;87.07;22.85;;;;;;;1.87;74.27;97508.88;4843264;29;20032;-51
2021/11/25 09:32:47;;;;;;;87.78;24.92;;;;;;;1.99;73.06;97513.47;4843175;29;20048;-52
2021/11/25 09:35:12;;;;;;;81.65;24.50;;;;;;;1.85;73.70;97518.44;4843931;29;20025;-51
2021/11/25 09:37:38;;;;;;;78.80;24.40;;;;;;;1.62;74.82;97503.97;4842935;29;20034;-54
2021/11/25 09:40:09;;;;;;;74.93;23.05;;;;;;;1.84;73.88;97503.84;4842794;29;20025;-53
2021/11/25 09:42:34;;;;;;;85.40;24.05;;;;;;;1.84;73.87;97498.66;4843181;29;20041;-53
2021/11/25 09:45:02;;;;;;;87.10;23.33;;;;;;;1.69;74.30;97499.31;4843533;29;20030;-53
2021/11/25 09:47:27;;;;;;;94.22;25.63;;;;;;;1.85;74.04;97497.75;4861267;29;20188;-52
2021/11/25 09:49:53;;;;;;;83.03;24.25;;;;;;;1.80;74.32;97486.78;4875716;29;20148;-54
2021/11/25 09:52:18;;;;;;;87.18;26.00;;;;;;;1.87;73.61;97488.19;4875505;29;20500;-53
2021/11/25 09:54:44;;;;;;;80.20;23.27;;;;;;;1.88;73.73;97477.75;4861002;29;20094;-50
2021/11/25 09:57:09;;;;;;;81.60;23.85;;;;;;;1.79;74.25;97474.75;4859543;29;20429;-50
2021/11/25 09:59:34;;;;;;;80.25;22.85;;;;;;;1.86;73.84;97476.16;4859910;29;20041;-48
2021/11/25 10:02:00;;;;;;;79.55;23.27;;;;;;;1.97;73.99;97476.50;4861219;29;20044;-53
2021/11/25 10:04:26;;;;;;;74.65;21.75;;;;;;;1.85;74.03;97482.22;4860927;29;20402;-52
2021/11/25 10:06:56;;;;;;;74.50;20.90;;;;;;;1.84;73.88;97477.97;4859297;29;20093;-53
2021/11/25 10:09:38;;;;;;;78.80;23.98;;;;;;;2.01;73.36;97480.63;4860998;29;20033;-51
2021/11/25 10:12:37;;;;;;;81.70;25.50;;;;;;;1.81;73.46;97470.34;4860980;29;20033;-50
2021/11/25 10:15:30;;;;;;;79.38;22.50;;;;;;;1.88;73.48;97469.16;4858411;29;20049;-52
2021/11/25 10:17:58;;;;;;;72.88;21.73;;;;;;;1.96;73.71;97472.25;4872307;29;20120;-53
2021/11/25 10:20:27;;;;;;;83.38;23.77;;;;;;;1.84;74.00;97462.47;4874699;29;20076;-52
2021/11/25 10:23:02;;;;;;;87.97;24.88;;;;;;;1.92;73.84;97454.34;4860753;29;20563;-51
2021/11/25 10:25:55;;;;;;;81.50;23.73;;;;;;;1.57;74.78;97459.38;4860441;29;20033;-50
2021/11/25 10:28:26;;;;;;;81.55;22.83;;;;;;;1.78;74.58;97460.16;4859016;29;20398;-52
2021/11/25 10:31:11;;;;;;;72.93;23.02;;;;;;;1.83;74.19;97455.63;4860726;29;20028;-50
2021/11/25 10:33:45;;;;;;;76.82;23.65;;;;;;;1.77;74.29;97453.31;4860312;29;20508;-49
2021/11/25 10:41:14;;;;;;;82.07;24.70;;;;;;;1.54;75.27;97464.66;4860438;29;20482;-54
2021/11/25 10:43:40;;;;;;;72.25;22.83;;;;;;;1.52;75.95;97466.50;4860081;29;20029;-53
2021/11/25 10:46:06;;;;;;;87.82;25.13;;;;;;;1.29;76.20;97455.41;4859165;29;20041;-54
2021/11/25 10:48:39;;;;;;;75.60;23.77;;;;;;;1.52;76.13;97469.91;4858376;29;20067;-54
2021/11/25 10:51:30;;;;;;;72.25;22.23;;;;;;;1.43;75.98;97478.06;4859840;29;20082;-54
2021/11/25 10:54:07;;;;;;;73.55;21.40;;;;;;;1.26;76.21;97473.63;4859961;29;20036;-52
2021/11/25 10:56:37;;;;;;;71.75;22.80;;;;;;;1.40;75.97;97478.19;4859966;29;20569;-51
2021/11/25 10:59:02;;;;;;;73.07;22.08;;;;;;;1.46;75.99;97477.09;4856971;29;20042;-52
2021/11/25 11:01:33;;;;;;;76.80;22.77;;;;;;;1.39;75.67;97477.34;4860026;29;20029;-51
2021/11/25 11:03:59;;;;;;;77.93;21.77;;;;;;;1.40;75.44;97476.44;4858593;29;20037;-50
2021/11/25 11:06:32;;;;;;;73.07;22.55;;;;;;;1.18;76.44;97478.28;4847153;29;20081;-52
2021/11/25 11:08:57;;;;;;;68.68;23.48;;;;;;;0.97;76.10;97480.03;4841445;29;20032;-50
2021/11/25 11:11:38;;;;;;;72.40;22.48;;;;;;;0.86;77.40;97482.19;4841443;29;20030;-53
2021/11/25 11:14:27;;;;;;;67.10;21.38;;;;;;;1.07;76.80;97480.47;4841305;29;20034;-49
2021/11/25 11:17:21;;;;;;;72.65;22.73;;;;;;;1.09;76.84;97468.31;4841220;29;20112;-52
2021/11/25 11:20:05;;;;;;;79.40;22.30;;;;;;;1.11;76.22;97462.19;4841343;29;20074;-52
2021/11/25 11:22:30;;;;;;;75.18;21.42;;;;;;;1.16;75.92;97462.00;4841286;29;20041;-51
2021/11/25 11:24:56;;;;;;;69.90;20.55;;;;;;;1.51;74.52;97460.47;4841124;29;20029;-51
2021/11/25 11:27:21;;;;;;;73.82;20.40;;;;;;;1.49;74.70;97461.44;4840965;29;20037;-48
2021/11/25 11:29:46;;;;;;;74.28;21.75;;;;;;;1.38;74.63;97460.19;4841243;29;20497;-49
2021/11/25 11:32:12;;;;;;;71.68;21.58;;;;;;;1.31;75.01;97463.94;4841329;29;20025;-50
2021/11/25 11:34:37;;;;;;;71.68;20.88;;;;;;;1.14;76.29;97463.81;4825029;29;20054;-50
2021/11/25 11:37:03;;;;;;;60.17;19.95;;;;;;;1.23;76.73;97466.00;4825706;29;20097;-49
2021/11/25 11:39:30;;;;;;;62.50;19.50;;;;;;;1.16;75.77;97464.56;4841182;29;20034;-49
2021/11/25 11:41:57;;;;;;;77.20;22.20;;;;;;;1.05;76.90;97466.78;4840920;29;20479;-49
2021/11/25 11:44:23;;;;;;;64.55;18.20;;;;;;;0.95;77.30;97461.16;4840935;29;20034;-49
2021/11/25 11:46:49;;;;;;;64.20;20.70;;;;;;;0.84;77.11;97458.19;4857923;29;20090;-47
2021/11/25 11:49:15;;;;;;;68.55;19.75;;;;;;;0.95;76.54;97463.75;4858416;29;20065;-52
2021/11/25 11:51:40;;;;;;;69.85;21.63;;;;;;;0.88;76.66;97459.75;4859623;29;20023;-51
2021/11/25 11:54:18;;;;;;;65.47;21.17;;;;;;;0.87;76.57;97451.16;4858904;29;20052;-50
2021/11/25 11:56:44;;;;;;;63.58;19.50;;;;;;;0.91;76.73;97449.28;4858779;29;20454;-52
2021/11/25 11:59:10;;;;;;;71.15;19.52;;;;;;;0.74;77.34;97451.72;4873680;29;20032;-53
2021/11/25 12:01:35;;;;;;;63.65;20.70;;;;;;;0.92;76.90;97448.38;4873611;29;20021;-48
2021/11/25 12:04:04;;;;;;;60.65;20.33;;;;;;;0.97;76.35;97449.03;4876072;29;20520;-52
2021/11/25 12:06:46;;;;;;;66.68;19.88;;;;;;;0.98;76.57;97444.72;4863215;29;20501;-51
2021/11/25 12:09:14;;;;;;;53.35;15.43;;;;;;;0.64;77.67;97451.25;4862894;29;20036;-53
2021/11/25 12:11:40;;;;;;;63.65;19.88;;;;;;;0.88;77.54;97454.56;4863044;29;20028;-50
2021/11/25 12:14:16;;;;;;;55.63;17.58;;;;;;;0.80;76.99;97449.72;4862702;29;20105;-53
2021/11/25 12:16:54;;;;;;;61.42;17.98;;;;;;;0.90;77.19;97445.03;4862460;29;20037;-54
2021/11/25 12:19:35;;;;;;;63.92;19.70;;;;;;;0.56;77.68;97438.69;4862692;29;20030;-50
2021/11/25 12:22:14;;;;;;;66.03;19.67;;;;;;;0.69;77.08;97434.69;4862837;29;20032;-50
2021/11/25 12:24:44;;;;;;;64.13;20.05;;;;;;;0.82;76.40;97434.16;4862779;29;20057;-53
2021/11/25 12:27:25;;;;;;;59.47;17.80;;;;;;;0.84;77.06;97434.94;4862136;29;20029;-55
2021/11/25 12:30:00;;;;;;;56.65;18.50;;;;;;;1.35;74.48;97429.31;4862827;29;20034;-52
2021/11/25 12:32:27;;;;;;;64.15;18.52;;;;;;;1.26;75.06;97428.84;4861588;29;20085;-53
2021/11/25 12:35:24;;;;;;;63.30;17.67;;;;;;;1.20;74.99;97424.78;4862254;29;20038;-55
2021/11/25 12:38:02;;;;;;;144.30;37.45;;;;;;;0.92;76.55;97428.56;4861538;29;20049;-55
2021/11/25 12:40:27;;;;;;;187.85;46.00;;;;;;;0.84;76.80;97424.63;4860934;29;20026;-53
2021/11/25 12:43:06;;;;;;;141.60;38.45;;;;;;;1.00;76.64;97422.22;4862470;29;20085;-55
2021/11/25 12:45:35;;;;;;;158.18;40.97;;;;;;;0.78;76.92;97423.13;4875865;29;20034;-55
2021/11/25 12:48:10;;;;;;;99.40;29.42;;;;;;;0.73;77.13;97411.34;4862371;29;20402;-50
2021/11/25 12:50:44;;;;;;;102.90;27.52;;;;;;;0.80;77.10;97410.19;4862122;29;20021;-53
2021/11/25 12:53:11;;;;;;;288.40;54.33;;;;;;;0.81;76.70;97396.34;4862329;29;20062;-54
2021/11/25 12:55:37;;;;;;;77.65;22.55;;;;;;;0.90;76.09;97411.47;4861863;29;20053;-52
2021/11/25 12:58:03;;;;;;;86.13;24.85;;;;;;;0.82;76.98;97403.19;4861973;29;20093;-51
2021/11/25 13:00:30;;;;;;;62.78;20.08;;;;;;;1.03;76.31;97411.75;4860914;29;20021;-54
2021/11/25 13:03:02;;;;;;;63.15;19.65;;;;;;;0.90;76.94;97403.72;4862214;29;20032;-57
2021/11/25 13:05:28;;;;;;;66.13;19.90;;;;;;;0.92;76.51;97404.47;4862040;29;20026;-53
2021/11/25 13:07:53;;;;;;;59.28;18.42;;;;;;;1.11;75.80;97404.53;4861746;29;20080;-52
2021/11/25 13:10:26;;;;;;;58.80;19.63;;;;;;;0.94;76.59;97397.50;4862050;29;20034;-54
2021/11/25 13:12:52;;;;;;;64.60;18.85;;;;;;;0.86;76.86;97392.69;4861811;29;20057;-55
2021/11/25 13:15:17;;;;;;;69.80;20.48;;;;;;;0.99;76.82;97392.16;4860889;29;20394;-54
2021/11/25 13:17:56;;;;;;;62.13;19.17;;;;;;;0.83;76.71;97394.56;4854985;29;20026;-54
2021/11/25 13:20:43;;;;;;;60.20;17.33;;;;;;;1.10;76.09;97392.50;4861827;29;20048;-54
2021/11/25 13:23:10;;;;;;;64.07;18.00;;;;;;;1.24;75.16;97389.31;4861692;29;20105;-52
2021/11/25 13:25:52;;;;;;;63.13;19.63;;;;;;;0.86;76.54;97397.84;4861533;29;20482;-54
2021/11/25 13:28:29;;;;;;;56.63;17.75;;;;;;;1.19;75.36;97392.13;4860179;29;20029;-51
2021/11/25 13:31:13;;;;;;;69.63;19.25;;;;;;;1.01;75.81;97398.94;4861744;29;20053;-56
2021/11/25 13:33:58;;;;;;;63.95;18.75;;;;;;;0.63;77.43;97403.13;4861767;29;20040;-54
2021/11/25 13:36:41;;;;;;;70.43;19.30;;;;;;;0.59;78.08;97402.41;4861703;29;20096;-50
2021/11/25 13:39:11;;;;;;;64.00;17.73;;;;;;;1.00;76.98;97407.59;4860046;29;20067;-53
2021/11/25 13:41:38;;;;;;;57.45;16.67;;;;;;;1.10;75.04;97398.53;4861480;29;20025;-53
2021/11/25 13:44:04;;;;;;;56.85;15.93;;;;;;;1.12;74.33;97383.78;4861116;29;20030;-53
2021/11/25 13:46:43;;;;;;;53.13;15.40;;;;;;;1.26;73.91;97390.09;4860931;29;20108;-53
2021/11/25 13:49:10;;;;;;;57.05;16.42;;;;;;;1.19;74.10;97392.94;4843046;29;20053;-52
2021/11/25 13:51:40;;;;;;;69.78;18.67;;;;;;;1.09;74.34;97402.00;4861367;29;20445;-53
2021/11/25 13:54:11;;;;;;;51.83;17.15;;;;;;;1.09;74.55;97402.00;4860981;29;20068;-53
2021/11/25 13:56:36;;;;;;;65.10;17.45;;;;;;;1.35;73.66;97397.47;4861087;29;20101;-56
2021/11/25 13:59:03;;;;;;;61.72;17.80;;;;;;;0.90;75.45;97396.81;4860097;29;20498;-51
2021/11/25 14:01:32;;;;;;;58.30;18.13;;;;;;;0.99;75.55;97385.22;4861529;29;20057;-55
2021/11/25 14:03:58;;;;;;;61.08;17.60;;;;;;;1.17;75.04;97388.75;4842431;29;20101;-54
2021/11/25 14:06:25;;;;;;;61.22;17.90;;;;;;;1.01;75.19;97387.75;4842558;29;20125;-56
2021/11/25 14:08:51;;;;;;;61.97;17.33;;;;;;;0.74;76.01;97397.53;4856634;29;20094;-54
2021/11/25 14:11:17;;;;;;;62.45;18.58;;;;;;;0.85;76.33;97395.31;4856518;29;20434;-53
2021/11/25 14:13:42;;;;;;;60.47;18.33;;;;;;;0.98;75.76;97388.72;4860563;29;20033;-53
2021/11/25 14:16:21;;;;;;;72.40;20.17;;;;;;;0.92;75.66;97383.81;4860838;29;20036;-55
2021/11/25 14:18:46;;;;;;;62.00;18.48;;;;;;;1.18;75.21;97390.44;4860738;29;20056;-53
2021/11/25 14:21:12;;;;;;;63.40;18.65;;;;;;;1.23;74.80;97390.25;4859061;29;20486;-52
2021/11/25 14:23:37;;;;;;;58.58;20.35;;;;;;;1.13;75.28;97397.53;4860503;29;20033;-54
2021/11/25 14:27:03;;;;;;;65.82;18.80;;;;;;;1.09;75.42;97391.69;4860372;29;20045;-54
2021/11/25 14:31:56;;;;;;;66.00;20.15;;;;;;;1.59;72.91;97395.53;4859212;29;20072;-50
2021/11/25 14:34:35;;;;;;;72.35;20.83;;;;;;;1.39;73.78;97392.06;4860348;29;20394;-54
2021/11/25 14:37:00;;;;;;;71.63;22.13;;;;;;;1.36;73.96;97388.78;4860362;29;20025;-52
2021/11/25 14:39:27;;;;;;;67.20;20.88;;;;;;;1.33;74.05;97392.34;4860531;29;20036;-54
2021/11/25 14:41:53;;;;;;;60.50;18.95;;;;;;;1.42;74.05;97388.53;4858735;29;20037;-54
2021/11/25 14:44:20;;;;;;;59.80;18.08;;;;;;;1.55;72.46;97378.44;4859046;29;20490;-53
2021/11/25 14:47:04;;;;;;;62.88;19.33;;;;;;;1.62;72.35;97380.72;4860275;29;20066;-54
2021/11/25 14:49:31;;;;;;;58.20;17.02;;;;;;;1.37;73.09;97386.13;4875045;29;20093;-54
2021/11/25 14:52:08;;;;;;;62.15;18.10;;;;;;;1.29;74.11;97392.56;4860526;29;20033;-54
2021/11/25 14:54:34;;;;;;;58.75;17.10;;;;;;;1.21;73.66;97392.06;4860107;29;20037;-52
2021/11/25 14:56:59;;;;;;;60.50;17.38;;;;;;;1.09;74.36;97394.25;4858382;29;20486;-55
2021/11/25 14:59:25;;;;;;;60.30;18.10;;;;;;;1.42;73.76;97389.34;4858903;29;20035;-50
2021/11/25 15:01:50;;;;;;;61.90;18.90;;;;;;;1.63;72.84;97386.72;4860226;29;20089;-52
2021/11/25 15:04:20;;;;;;;62.58;19.02;;;;;;;1.47;73.39;97390.91;4859895;29;20025;-54
2021/11/25 15:06:47;;;;;;;61.22;17.63;;;;;;;1.26;74.08;97392.69;4858138;29;20397;-53
2021/11/25 15:09:17;;;;;;;55.53;16.85;;;;;;;1.28;74.24;97391.72;4842671;29;20045;-49
2021/11/25 15:11:43;;;;;;;86.72;29.85;;;;;;;1.27;74.24;97402.09;4852110;29;20157;-55
2021/11/25 15:14:11;;;;;;;58.63;18.05;;;;;;;1.39;73.79;97409.34;4859559;29;20026;-49
2021/11/25 15:16:36;;;;;;;56.90;16.85;;;;;;;1.40;73.22;97411.00;4859594;29;20497;-51
2021/11/25 15:19:02;;;;;;;60.95;16.55;;;;;;;1.52;73.03;97413.06;4858388;29;20033;-52
2021/11/25 15:21:28;;;;;;;63.95;17.00;;;;;;;1.60;72.81;97413.53;4858501;29;20029;-51
2021/11/25 15:23:53;;;;;;;68.70;17.95;;;;;;;1.38;73.88;97403.34;4859547;29;20030;-50
2021/11/25 15:26:19;;;;;;;62.60;19.02;;;;;;;1.38;74.23;97408.50;4859613;29;20035;-53
2021/11/25 15:28:44;;;;;;;62.83;18.13;;;;;;;1.39;73.93;97406.75;4856956;29;20037;-52
2021/11/25 15:31:10;;;;;;;63.58;18.00;;;;;;;1.42;73.38;97401.44;4856830;29;20022;-53
2021/11/25 15:33:35;;;;;;;69.03;18.48;;;;;;;1.20;74.64;97422.19;4840955;29;20040;-50
2021/11/25 15:36:05;;;;;;;65.60;20.95;;;;;;;1.33;74.66;97422.50;4841151;29;20099;-51
2021/11/25 15:38:31;;;;;;;68.05;20.63;;;;;;;1.24;74.61;97410.00;4840970;29;20082;-52
2021/11/25 15:40:56;;;;;;;55.03;17.55;;;;;;;1.29;75.15;97423.56;4841441;29;20029;-51
2021/11/25 15:43:22;;;;;;;70.57;21.70;;;;;;;1.46;74.25;97410.72;4853062;29;20060;-49
2021/11/25 15:45:47;;;;;;;67.20;21.20;;;;;;;1.39;74.56;97415.34;4844906;29;20038;-50
2021/11/25 15:48:13;;;;;;;64.82;19.80;;;;;;;1.30;74.83;97420.06;4841983;29;20034;-50
2021/11/25 15:50:39;;;;;;;78.80;24.00;;;;;;;1.50;74.40;97417.44;4841012;29;20041;-47
2021/11/25 15:53:05;;;;;;;68.00;21.08;;;;;;;1.51;74.56;97426.84;4842883;29;20046;-48
2021/11/25 15:55:31;;;;;;;63.03;18.08;;;;;;;1.63;73.25;97423.75;4840201;29;20455;-52
2021/11/25 15:57:56;;;;;;;66.82;20.15;;;;;;;1.47;74.00;97427.06;4841320;29;20078;-53
2021/11/25 16:00:22;;;;;;;66.32;20.02;;;;;;;1.59;73.56;97426.53;4840904;29;20048;-53
2021/11/25 16:02:47;;;;;;;69.45;19.33;;;;;;;1.29;74.44;97434.72;4839757;29;20040;-50
2021/11/25 16:05:12;;;;;;;68.30;18.92;;;;;;;1.27;74.13;97433.94;4840672;29;20500;-51
2021/11/25 16:07:38;;;;;;;64.10;18.15;;;;;;;1.19;74.47;97430.88;4840918;29;20025;-50
2021/11/25 16:10:04;;;;;;;63.67;18.10;;;;;;;1.30;74.35;97415.72;4841036;29;20211;-52
2021/11/25 16:12:30;;;;;;;62.67;18.30;;;;;;;1.29;74.25;97423.56;4840856;29;20491;-50
2021/11/25 16:14:55;;;;;;;62.00;19.25;;;;;;;1.22;74.58;97422.16;4840696;29;20037;-50
2021/11/25 16:17:21;;;;;;;65.63;18.80;;;;;;;1.31;74.43;97425.19;4840772;29;20196;-50
2021/11/25 16:19:47;;;;;;;61.88;18.23;;;;;;;1.39;73.95;97419.66;4840900;29;20026;-53
2021/11/25 16:22:13;;;;;;;69.50;18.80;;;;;;;1.27;74.20;97427.94;4840917;29;20034;-54
2021/11/25 16:24:38;;;;;;;64.13;18.42;;;;;;;1.30;74.20;97425.22;4840772;29;20022;-55
2021/11/25 16:27:04;;;;;;;65.97;17.63;;;;;;;1.27;74.30;97425.34;4840237;29;20029;-50
2021/11/25 16:29:29;;;;;;;64.35;21.52;;;;;;;1.30;74.57;97430.41;4840947;29;20041;-52
2021/11/25 16:31:54;;;;;;;62.92;19.67;;;;;;;1.25;74.83;97432.34;4840747;29;20029;-55
2021/11/25 16:34:23;;;;;;;60.33;18.08;;;;;;;1.44;73.77;97430.63;4840553;29;20030;-53
2021/11/25 16:36:48;;;;;;;66.40;20.15;;;;;;;1.45;73.72;97431.50;4840664;29;20037;-49
2021/11/25 16:39:14;;;;;;;63.92;19.02;;;;;;;1.41;74.01;97443.69;4840707;29;20030;-52
2021/11/25 16:41:41;;;;;;;73.43;20.33;;;;;;;1.15;74.68;97443.06;4840533;29;20402;-50
2021/11/25 16:44:07;;;;;;;69.78;21.30;;;;;;;1.12;74.94;97443.19;4840427;29;20033;-54
2021/11/25 16:46:37;;;;;;;65.93;20.25;;;;;;;1.10;75.08;97439.88;4840810;29;20026;-52
2021/11/25 16:49:02;;;;;;;66.80;20.58;;;;;;;1.09;75.17;97440.75;4840813;29;20406;-49
2021/11/25 16:51:27;;;;;;;71.80;21.08;;;;;;;1.33;74.68;97435.44;4844112;29;20025;-48
2021/11/25 16:53:53;;;;;;;64.28;19.08;;;;;;;1.29;74.38;97439.06;4843898;29;20368;-48
2021/11/25 16:56:18;;;;;;;72.60;19.95;;;;;;;1.34;73.56;97447.44;4843855;29;20026;-49
2021/11/25 16:58:44;;;;;;;61.67;19.25;;;;;;;1.40;73.81;97436.84;4843778;29;20025;-48
2021/11/25 17:01:11;;;;;;;118.38;32.40;;;;;;;1.33;74.20;97440.59;4844009;29;20030;-48
2021/11/25 17:03:36;;;;;;;87.03;25.90;;;;;;;1.51;73.44;97434.63;4843451;29;20030;-48
2021/11/25 17:06:03;;;;;;;69.38;19.52;;;;;;;1.60;72.53;97435.97;4844161;29;20034;-50
2021/11/25 17:08:28;;;;;;;67.82;21.00;;;;;;;1.46;73.24;97436.56;4843225;29;20037;-52
2021/11/25 17:10:56;;;;;;;69.55;21.75;;;;;;;1.36;73.51;97435.31;4861643;29;20032;-49
2021/11/25 17:13:23;;;;;;;57.92;17.92;;;;;;;1.40;73.22;97442.00;4860428;29;20131;-52
2021/11/25 17:15:49;;;;;;;58.92;19.88;;;;;;;1.32;73.92;97444.09;4861966;29;20025;-52
2021/11/25 17:18:14;;;;;;;64.72;20.05;;;;;;;1.27;74.43;97451.19;4861640;29;20116;-48
2021/11/25 17:20:43;;;;;;;61.30;18.95;;;;;;;1.25;73.69;97448.69;4861669;29;20026;-51
2021/11/25 17:23:08;;;;;;;63.13;19.27;;;;;;;1.38;73.21;97449.00;4862165;29;20057;-48
2021/11/25 17:25:34;;;;;;;68.47;22.35;;;;;;;1.33;73.93;97449.19;4861521;29;20497;-49
2021/11/25 17:27:59;;;;;;;76.30;23.73;;;;;;;1.41;73.33;97459.19;4861758;29;20045;-50
2021/11/25 17:30:27;;;;;;;75.90;22.88;;;;;;;1.39;73.22;97445.50;4861532;29;20029;-49
2021/11/25 17:32:52;;;;;;;63.85;21.45;;;;;;;1.39;73.30;97451.50;4861727;29;20056;-50
2021/11/25 17:35:17;;;;;;;65.47;20.85;;;;;;;1.40;72.68;97454.94;4861357;29;20393;-48
2021/11/25 17:37:43;;;;;;;76.50;22.27;;;;;;;1.39;72.87;97455.84;4861695;29;20168;-49
2021/11/25 17:40:09;;;;;;;68.93;19.95;;;;;;;1.33;72.87;97449.19;4861675;29;20477;-50
2021/11/25 17:42:34;;;;;;;77.28;28.08;;;;;;;1.12;73.87;97456.13;4860314;29;20033;-50
2021/11/25 17:45:00;;;;;;;89.95;33.80;;;;;;;1.18;73.53;97455.88;4861203;29;20061;-50
2021/11/25 17:47:25;;;;;;;68.63;21.27;;;;;;;1.16;73.84;97452.50;4860114;29;20037;-52
2021/11/25 17:49:51;;;;;;;88.63;32.70;;;;;;;1.11;73.71;97462.19;4861359;29;20040;-49
2021/11/25 17:52:16;;;;;;;74.47;23.42;;;;;;;1.33;73.07;97461.28;4861287;29;20029;-54
2021/11/25 17:54:41;;;;;;;75.95;25.35;;;;;;;1.25;73.22;97463.34;4860975;29;20029;-51